createdAt,value
2018-07-07T00:01:31.799Z,58.20
2018-07-07T00:04:06.013Z,58.10
2018-07-07T00:06:40.313Z,58.00
2018-07-07T00:09:14.654Z,57.90
2018-07-07T00:11:48.949Z,58.30
2018-07-07T00:14:23.282Z,58.00
2018-07-07T00:16:57.556Z,58.30
2018-07-07T00:19:31.867Z,58.80
2018-07-07T00:22:06.406Z,58.90
2018-07-07T00:24:40.595Z,58.60
2018-07-07T00:27:15.060Z,58.70
2018-07-07T00:29:49.585Z,57.50
2018-07-07T00:32:23.806Z,58.10
2018-07-07T00:34:58.134Z,57.50
2018-07-07T00:37:32.412Z,58.30
2018-07-07T00:40:07.298Z,58.90
2018-07-07T00:42:41.566Z,58.90
2018-07-07T00:45:15.784Z,58.80
2018-07-07T00:47:50.929Z,59.70
2018-07-07T00:50:25.155Z,59.70
2018-07-07T00:52:59.401Z,59.90
2018-07-07T00:55:33.811Z,61.30
2018-07-07T00:58:08.090Z,62.00
2018-07-07T01:00:51.138Z,61.40
2018-07-07T01:03:25.270Z,61.80
2018-07-07T01:05:59.570Z,61.80
2018-07-07T01:08:33.905Z,62.70
2018-07-07T01:11:08.354Z,62.10
2018-07-07T01:13:42.658Z,62.10
2018-07-07T01:16:17.127Z,63.10
2018-07-07T01:18:51.353Z,62.30
2018-07-07T01:21:25.702Z,63.10
2018-07-07T01:24:00.048Z,63.60
2018-07-07T01:26:34.382Z,63.70
2018-07-07T01:29:08.726Z,64.20
2018-07-07T01:31:43.149Z,64.10
2018-07-07T01:34:17.448Z,64.00
2018-07-07T01:39:25.798Z,64.40
2018-07-07T01:42:00.161Z,64.90
2018-07-07T01:44:34.509Z,65.60
2018-07-07T01:47:08.819Z,65.90
2018-07-07T01:49:43.149Z,66.20
2018-07-07T01:52:17.507Z,66.90
2018-07-07T01:57:25.942Z,67.90
2018-07-07T02:00:00.283Z,67.50
2018-07-07T02:05:08.898Z,68.50
2018-07-07T02:07:43.297Z,68.30
2018-07-07T02:10:17.613Z,67.70
2018-07-07T02:12:51.826Z,68.10
2018-07-07T02:18:00.390Z,68.50
2018-07-07T02:20:34.726Z,68.60
2018-07-07T02:23:09.046Z,69.30
2018-07-07T02:25:43.466Z,70.00
2018-07-07T02:28:17.771Z,70.00
2018-07-07T02:30:52.102Z,70.40
2018-07-07T02:33:26.626Z,70.50
2018-07-07T02:36:00.955Z,70.60
2018-07-07T02:38:35.223Z,71.10
2018-07-07T02:41:09.561Z,70.70
2018-07-07T02:43:43.803Z,71.00
2018-07-07T02:46:18.376Z,71.90
2018-07-07T02:48:52.518Z,71.80
2018-07-07T02:54:01.138Z,73.00
2018-07-07T02:56:35.543Z,72.80
2018-07-07T02:59:09.848Z,72.80
2018-07-07T03:01:44.298Z,73.00
2018-07-07T03:04:18.618Z,73.60
2018-07-07T03:06:53.302Z,73.70
2018-07-07T03:09:27.514Z,73.60
2018-07-07T03:12:01.921Z,74.40
2018-07-07T03:14:36.202Z,74.50
2018-07-07T03:19:44.731Z,74.80
2018-07-07T03:22:19.038Z,74.80
2018-07-07T03:24:53.466Z,74.80
2018-07-07T03:27:27.794Z,74.60
2018-07-07T03:30:02.075Z,74.60
2018-07-07T03:32:36.515Z,75.00
2018-07-07T03:35:10.753Z,75.00
2018-07-07T03:37:45.099Z,75.10
2018-07-07T03:40:19.377Z,75.10
2018-07-07T03:42:53.596Z,75.70
2018-07-07T03:45:27.920Z,75.60
2018-07-07T03:48:02.206Z,75.70
2018-07-07T03:50:36.546Z,75.70
2018-07-07T03:53:10.886Z,75.70
2018-07-07T03:55:45.310Z,76.10
2018-07-07T03:58:19.597Z,76.50
2018-07-07T04:00:54.274Z,76.30
2018-07-07T04:03:28.542Z,77.10
2018-07-07T04:06:02.874Z,77.20
2018-07-07T04:08:37.133Z,77.10
2018-07-07T04:11:11.577Z,78.00
2018-07-07T04:13:45.826Z,77.50
2018-07-07T04:16:20.307Z,77.90
2018-07-07T04:18:54.654Z,78.70
2018-07-07T04:21:28.954Z,78.20
2018-07-07T04:24:03.408Z,78.30
2018-07-07T04:26:37.708Z,78.00
2018-07-07T04:29:11.985Z,78.30
2018-07-07T04:31:46.213Z,78.40
2018-07-07T04:34:20.543Z,78.20
2018-07-07T04:36:54.809Z,78.50
2018-07-07T04:39:29.199Z,79.10
2018-07-07T04:42:03.522Z,78.80
2018-07-07T04:44:37.863Z,79.20
2018-07-07T04:47:12.206Z,79.60
2018-07-07T04:49:46.518Z,80.60
2018-07-07T04:52:20.775Z,80.00
2018-07-07T04:54:55.077Z,79.70
2018-07-07T04:57:29.498Z,79.70
2018-07-07T05:00:03.949Z,79.80
2018-07-07T05:02:38.216Z,79.70
2018-07-07T05:05:12.486Z,79.70
2018-07-07T05:07:46.802Z,79.60
2018-07-07T05:10:21.174Z,80.00
2018-07-07T05:12:55.579Z,80.00
2018-07-07T05:15:29.823Z,80.10
2018-07-07T05:18:04.293Z,82.30
2018-07-07T05:20:38.509Z,81.20
2018-07-07T05:23:12.758Z,80.00
2018-07-07T05:25:47.069Z,80.10
2018-07-07T05:28:21.323Z,80.60
2018-07-07T05:30:55.672Z,79.90
2018-07-07T05:33:29.898Z,79.90
2018-07-07T05:36:04.391Z,80.20
2018-07-07T05:38:38.774Z,80.30
2018-07-07T05:41:12.981Z,80.70
2018-07-07T05:43:47.330Z,80.50
2018-07-07T05:46:21.485Z,79.90
2018-07-07T05:48:55.898Z,79.90
2018-07-07T05:51:30.178Z,80.20
2018-07-07T05:54:04.486Z,79.00
2018-07-07T05:56:38.951Z,79.20
2018-07-07T05:59:13.454Z,79.90
2018-07-07T06:01:47.802Z,79.70
2018-07-07T06:04:22.172Z,79.30
2018-07-07T06:06:56.771Z,78.40
2018-07-07T06:09:31.108Z,78.20
2018-07-07T06:12:05.382Z,77.40
2018-07-07T06:14:39.758Z,78.00
2018-07-07T06:17:14.090Z,77.10
2018-07-07T06:19:48.427Z,77.30
2018-07-07T06:22:22.678Z,77.10
2018-07-07T06:24:57.326Z,76.90
2018-07-07T06:27:31.691Z,77.40
2018-07-07T06:30:06.317Z,77.10
2018-07-07T06:32:40.641Z,77.30
2018-07-07T06:35:14.968Z,77.10
2018-07-07T06:37:49.282Z,76.60
2018-07-07T06:40:23.537Z,76.20
2018-07-07T06:42:57.854Z,75.30
2018-07-07T06:45:32.170Z,74.40
2018-07-07T06:48:06.485Z,74.50
2018-07-07T06:50:40.839Z,75.40
2018-07-07T06:53:15.148Z,75.10
2018-07-07T06:55:49.422Z,73.90
2018-07-07T06:58:23.771Z,73.80
2018-07-07T07:00:58.046Z,72.60
2018-07-07T07:03:32.235Z,72.90
2018-07-07T07:06:06.546Z,72.10
2018-07-07T07:08:40.882Z,72.50
2018-07-07T07:13:49.473Z,72.10
2018-07-07T07:16:23.882Z,72.20
2018-07-07T07:18:58.091Z,72.20
2018-07-07T07:21:32.612Z,71.70
2018-07-07T07:24:06.974Z,70.10
2018-07-07T07:26:41.379Z,69.70
2018-07-07T07:29:15.900Z,70.20
2018-07-07T07:31:50.121Z,70.30
2018-07-07T07:34:24.517Z,69.70
2018-07-07T07:36:58.784Z,69.50
2018-07-07T07:39:33.118Z,69.10
2018-07-07T07:42:07.392Z,67.40
2018-07-07T07:44:41.705Z,67.70
2018-07-07T07:47:16.015Z,67.60
2018-07-07T07:49:50.202Z,65.70
2018-07-07T07:52:24.501Z,66.50
2018-07-07T07:54:59.082Z,66.90
2018-07-07T07:57:33.410Z,66.60
2018-07-07T08:00:07.670Z,66.90
2018-07-07T08:02:41.981Z,65.90
2018-07-07T08:05:16.204Z,65.00
2018-07-07T08:07:50.510Z,65.10
2018-07-07T08:10:24.816Z,65.00
2018-07-07T08:12:59.211Z,63.50
2018-07-07T08:18:07.476Z,64.00
2018-07-07T08:20:41.702Z,63.70
2018-07-07T08:23:16.015Z,63.90
2018-07-07T08:25:50.666Z,62.00
2018-07-07T08:28:25.032Z,62.90
2018-07-07T08:30:59.413Z,62.40
2018-07-07T08:33:33.586Z,63.00
2018-07-07T08:36:07.797Z,61.90
2018-07-07T08:38:42.134Z,61.70
2018-07-07T08:41:16.458Z,60.40
2018-07-07T08:43:50.703Z,59.80
2018-07-07T08:46:24.909Z,59.50
2018-07-07T08:48:59.214Z,60.70
2018-07-07T08:51:33.378Z,59.70
2018-07-07T08:54:07.566Z,59.40
2018-07-07T08:56:41.978Z,59.70
2018-07-07T08:59:16.313Z,59.70
2018-07-07T09:01:50.613Z,59.60
2018-07-07T09:04:24.894Z,59.40
2018-07-07T09:06:59.179Z,59.80
2018-07-07T09:09:33.556Z,60.10
2018-07-07T09:12:07.844Z,59.70
2018-07-07T09:14:42.118Z,59.20
2018-07-07T09:17:16.437Z,58.90
2018-07-07T09:19:50.710Z,58.70
2018-07-07T09:22:25.006Z,57.40
2018-07-07T09:24:59.762Z,56.90
2018-07-07T09:27:33.942Z,58.00
2018-07-07T09:30:08.230Z,57.70
2018-07-07T09:32:42.510Z,58.70
2018-07-07T09:35:16.681Z,58.50
2018-07-07T09:37:51.023Z,58.20
2018-07-07T09:42:59.442Z,56.50
2018-07-07T09:45:33.726Z,56.00
2018-07-07T09:48:07.883Z,55.50
2018-07-07T09:50:42.061Z,55.00
2018-07-07T09:53:16.437Z,56.10
2018-07-07T09:55:50.671Z,55.20
2018-07-07T09:58:24.973Z,55.60
2018-07-07T10:00:59.328Z,55.60
2018-07-07T10:03:33.591Z,56.50
2018-07-07T10:06:07.915Z,54.30
2018-07-07T10:08:42.171Z,54.40
2018-07-07T10:11:16.539Z,54.40
2018-07-07T10:13:50.959Z,55.60
2018-07-07T10:18:59.376Z,54.60
2018-07-07T10:21:33.595Z,53.50
2018-07-07T10:24:10.745Z,53.50
2018-07-07T10:26:46.013Z,54.20
2018-07-07T10:29:20.295Z,54.50
2018-07-07T10:31:54.727Z,53.90
2018-07-07T10:34:29.050Z,53.60
2018-07-07T10:37:03.286Z,53.60
2018-07-07T10:39:37.575Z,54.90
2018-07-07T10:42:11.846Z,53.50
2018-07-07T10:44:46.072Z,52.70
2018-07-07T10:47:20.333Z,52.70
2018-07-07T10:49:54.460Z,53.30
2018-07-07T10:52:35.342Z,52.80
2018-07-07T10:55:09.686Z,53.60
2018-07-07T10:57:44.049Z,52.90
2018-07-07T11:00:18.260Z,52.40
2018-07-07T11:02:52.613Z,53.20
2018-07-07T11:05:26.906Z,52.20
2018-07-07T11:08:01.239Z,51.20
2018-07-07T11:10:35.565Z,51.00
2018-07-07T11:13:09.927Z,50.60
2018-07-07T11:15:44.309Z,52.00
2018-07-07T11:18:18.593Z,52.80
2018-07-07T11:20:52.886Z,52.10
2018-07-07T11:23:27.323Z,50.70
2018-07-07T11:26:01.438Z,50.20
2018-07-07T11:28:35.770Z,49.50
2018-07-07T11:31:09.978Z,49.90
2018-07-07T11:33:44.331Z,50.80
2018-07-07T11:36:18.678Z,51.00
2018-07-07T11:38:52.839Z,50.30
2018-07-07T11:41:27.197Z,49.60
2018-07-07T11:44:01.377Z,49.00
2018-07-07T11:46:35.694Z,49.00
2018-07-07T11:49:10.130Z,50.30
2018-07-07T11:51:44.454Z,49.20
2018-07-07T11:54:18.694Z,48.80
2018-07-07T11:56:53.277Z,48.30
2018-07-07T11:59:27.530Z,47.30
2018-07-07T12:02:01.919Z,46.50
2018-07-07T12:04:36.273Z,47.30
2018-07-07T12:07:10.543Z,45.70
2018-07-07T12:09:44.747Z,45.90
2018-07-07T12:12:18.966Z,46.70
2018-07-07T12:14:53.259Z,46.20
2018-07-07T12:17:27.581Z,45.30
2018-07-07T12:20:01.883Z,44.70
2018-07-07T12:22:36.098Z,44.00
2018-07-07T12:25:10.411Z,44.10
2018-07-07T12:27:44.684Z,44.70
2018-07-07T12:30:18.995Z,44.40
2018-07-07T12:32:53.269Z,45.40
2018-07-07T12:35:27.614Z,45.60
2018-07-07T12:38:01.922Z,44.30
2018-07-07T12:40:36.376Z,42.50
2018-07-07T12:43:10.598Z,43.70
2018-07-07T12:45:44.851Z,43.40
2018-07-07T12:48:19.035Z,42.70
2018-07-07T12:50:53.321Z,42.90
2018-07-07T12:53:27.617Z,42.30
2018-07-07T12:56:01.957Z,41.00
2018-07-07T12:58:36.237Z,42.90
2018-07-07T13:01:10.568Z,41.70
2018-07-07T13:03:44.854Z,42.00
2018-07-07T13:06:19.097Z,40.10
2018-07-07T13:08:53.489Z,41.80
2018-07-07T13:11:27.934Z,41.40
2018-07-07T13:14:02.133Z,41.30
2018-07-07T13:16:36.319Z,40.40
2018-07-07T13:19:10.462Z,41.00
2018-07-07T13:21:44.866Z,41.00
2018-07-07T13:24:19.057Z,39.70
2018-07-07T13:26:54.045Z,39.10
2018-07-07T13:29:28.497Z,38.80
2018-07-07T13:32:02.851Z,39.90
2018-07-07T13:34:37.422Z,40.20
2018-07-07T13:37:11.595Z,40.20
2018-07-07T13:39:45.922Z,40.50
2018-07-07T13:42:20.246Z,40.00
2018-07-07T13:44:54.430Z,39.10
2018-07-07T13:47:28.692Z,38.80
2018-07-07T13:50:02.938Z,38.90
2018-07-07T13:52:37.331Z,39.50
2018-07-07T13:55:11.738Z,39.50
2018-07-07T13:57:46.081Z,39.10
2018-07-07T14:00:20.251Z,38.20
2018-07-07T14:02:54.619Z,37.80
2018-07-07T14:05:29.038Z,37.20
2018-07-07T14:08:04.162Z,37.30
2018-07-07T14:10:38.446Z,37.60
2018-07-07T14:13:12.821Z,36.60
2018-07-07T14:15:47.154Z,35.80
2018-07-07T14:18:21.488Z,36.60
2018-07-07T14:20:55.821Z,35.50
2018-07-07T14:23:30.217Z,36.30
2018-07-07T14:26:04.430Z,35.80
2018-07-07T14:28:38.721Z,35.70
2018-07-07T14:31:13.018Z,34.90
2018-07-07T14:33:47.320Z,35.30
2018-07-07T14:36:21.697Z,34.10
2018-07-07T14:38:56.011Z,34.10
2018-07-07T14:41:30.317Z,34.40
2018-07-07T14:44:05.211Z,34.60
2018-07-07T14:46:39.586Z,34.90
2018-07-07T14:49:13.935Z,35.30
2018-07-07T14:51:48.258Z,33.90
2018-07-07T14:54:22.771Z,34.40
2018-07-07T14:56:57.114Z,35.00
2018-07-07T14:59:31.423Z,35.80
2018-07-07T15:02:05.809Z,35.40
2018-07-07T15:04:40.217Z,35.80
2018-07-07T15:07:14.519Z,35.20
2018-07-07T15:09:48.866Z,35.60
2018-07-07T15:12:23.067Z,34.20
2018-07-07T15:14:57.401Z,33.10
2018-07-07T15:17:31.697Z,34.30
2018-07-07T15:20:06.261Z,34.10
2018-07-07T15:22:40.524Z,34.30
2018-07-07T15:25:14.745Z,34.20
2018-07-07T15:27:49.150Z,34.40
2018-07-07T15:30:23.476Z,35.00
2018-07-07T15:32:57.819Z,35.60
2018-07-07T15:35:32.159Z,35.00
2018-07-07T15:38:06.454Z,35.40
2018-07-07T15:40:40.883Z,35.50
2018-07-07T15:43:15.291Z,34.50
2018-07-07T15:45:49.651Z,33.90
2018-07-07T15:48:23.881Z,34.10
2018-07-07T15:50:58.358Z,33.80
2018-07-07T15:53:32.594Z,33.20
2018-07-07T15:56:06.894Z,33.30
2018-07-07T15:58:41.142Z,32.90
2018-07-07T16:01:15.605Z,33.50
2018-07-07T16:03:49.798Z,32.90
2018-07-07T16:06:24.225Z,33.20
2018-07-07T16:08:58.497Z,34.10
2018-07-07T16:11:32.689Z,34.10
2018-07-07T16:14:07.158Z,34.50
2018-07-07T16:16:41.469Z,35.10
2018-07-07T16:19:15.899Z,35.40
2018-07-07T16:21:50.418Z,34.10
2018-07-07T16:24:24.671Z,33.60
2018-07-07T16:26:58.853Z,34.10
2018-07-07T16:29:33.187Z,33.20
2018-07-07T16:32:07.364Z,32.90
2018-07-07T16:34:41.648Z,32.50
2018-07-07T16:37:16.182Z,33.80
2018-07-07T16:39:50.421Z,33.90
2018-07-07T16:42:25.058Z,34.20
2018-07-07T16:45:00.147Z,34.90
2018-07-07T16:47:34.394Z,36.70
2018-07-07T16:50:08.675Z,35.40
2018-07-07T16:52:42.878Z,35.50
2018-07-07T16:55:17.075Z,35.60
2018-07-07T16:57:51.434Z,35.60
2018-07-07T17:00:25.919Z,35.30
2018-07-07T17:03:00.241Z,35.20
2018-07-07T17:05:34.515Z,36.70
2018-07-07T17:08:08.831Z,36.90
2018-07-07T17:10:43.174Z,37.90
2018-07-07T17:13:17.494Z,38.00
2018-07-07T17:15:52.137Z,37.90
2018-07-07T17:18:26.440Z,38.20
2018-07-07T17:21:01.797Z,38.10
2018-07-07T17:23:36.217Z,36.60
2018-07-07T17:26:10.490Z,37.00
2018-07-07T17:28:44.802Z,36.10
2018-07-07T17:31:19.102Z,36.50
2018-07-07T17:33:53.270Z,37.60
2018-07-07T17:36:27.985Z,38.10
2018-07-07T17:39:02.495Z,38.70
2018-07-07T17:41:36.929Z,39.50
2018-07-07T17:44:11.138Z,39.10
2018-07-07T17:46:45.774Z,38.00
2018-07-07T17:49:20.148Z,38.50
2018-07-07T17:51:54.471Z,37.90
2018-07-07T17:54:28.677Z,38.90
2018-07-07T17:57:03.060Z,38.20
2018-07-07T17:59:38.103Z,39.60
2018-07-07T18:02:12.342Z,41.50
2018-07-07T18:04:46.889Z,42.20
2018-07-07T18:07:21.049Z,42.20
2018-07-07T18:09:55.278Z,42.80
2018-07-07T18:12:29.527Z,43.20
2018-07-07T18:15:03.846Z,44.00
2018-07-07T18:17:38.245Z,43.70
2018-07-07T18:20:12.622Z,44.40
2018-07-07T18:22:46.837Z,44.80
2018-07-07T18:25:20.998Z,44.90
2018-07-07T18:27:55.734Z,45.30
2018-07-07T18:30:30.078Z,45.70
2018-07-07T18:33:04.346Z,46.50
2018-07-07T18:35:38.654Z,46.90
2018-07-07T18:38:13.130Z,46.70
2018-07-07T18:43:21.263Z,47.60
2018-07-07T18:45:55.734Z,48.00
2018-07-07T18:51:04.160Z,48.70
2018-07-07T18:53:38.380Z,48.90
2018-07-07T18:56:12.776Z,48.50
2018-07-07T18:58:47.305Z,48.50
2018-07-07T19:01:21.458Z,49.40
2018-07-07T19:03:55.674Z,49.90
2018-07-07T19:06:29.936Z,50.50
2018-07-07T19:09:04.438Z,50.60
2018-07-07T19:11:39.370Z,50.70
2018-07-07T19:14:13.698Z,50.80
2018-07-07T19:16:47.946Z,51.20
2018-07-07T19:19:23.439Z,50.90
2018-07-07T19:22:03.097Z,51.20
2018-07-07T19:27:17.243Z,51.90
2018-07-07T19:29:51.470Z,52.00
2018-07-07T19:32:30.995Z,52.10
2018-07-07T19:36:10.906Z,52.30
2018-07-07T19:38:45.095Z,52.60
2018-07-07T19:41:19.540Z,53.00
2018-07-07T19:43:54.245Z,53.30
2018-07-07T19:46:28.522Z,53.70
2018-07-07T19:49:02.765Z,53.80
2018-07-07T19:54:11.210Z,54.70
2018-07-07T19:56:45.735Z,55.00
2018-07-07T19:59:20.092Z,55.30
2018-07-07T20:01:54.602Z,55.40
2018-07-07T20:04:28.794Z,55.20
2018-07-07T20:07:03.133Z,56.30
2018-07-07T20:09:37.643Z,56.30
2018-07-07T20:12:11.955Z,56.30
2018-07-07T20:14:46.286Z,56.80
2018-07-07T20:17:31.876Z,56.90
2018-07-07T20:20:42.643Z,57.00
2018-07-07T20:23:17.941Z,56.90
2018-07-07T20:25:57.503Z,58.10
2018-07-07T20:28:37.289Z,57.70
2018-07-07T20:31:11.448Z,57.70
2018-07-07T20:33:45.814Z,57.90
2018-07-07T20:36:20.009Z,58.10
2018-07-07T20:38:54.299Z,58.90
2018-07-07T20:41:28.675Z,58.20
2018-07-07T20:44:02.989Z,58.60
2018-07-07T20:46:37.670Z,58.70
2018-07-07T20:49:11.897Z,58.50
2018-07-07T20:51:46.226Z,58.90
2018-07-07T20:54:20.594Z,58.90
2018-07-07T20:56:54.891Z,58.90
2018-07-07T20:59:29.076Z,58.90
2018-07-07T21:02:03.388Z,59.00
2018-07-07T21:04:37.689Z,59.40
2018-07-07T21:07:11.992Z,59.40
2018-07-07T21:09:46.385Z,59.70
2018-07-07T21:12:20.745Z,59.50
2018-07-07T21:14:54.994Z,60.00
2018-07-07T21:17:29.282Z,60.00
2018-07-07T21:20:03.526Z,60.10
2018-07-07T21:22:38.128Z,60.00
2018-07-07T21:25:12.382Z,60.00
2018-07-07T21:27:46.801Z,60.00
2018-07-07T21:30:21.064Z,60.10
2018-07-07T21:32:55.443Z,60.10
2018-07-07T21:35:29.888Z,60.20
2018-07-07T21:38:04.111Z,60.80
2018-07-07T21:40:38.306Z,60.70
2018-07-07T21:43:12.675Z,60.90
2018-07-07T21:45:47.006Z,61.10
2018-07-07T21:48:21.276Z,61.10
2018-07-07T21:50:55.540Z,61.30
2018-07-07T21:53:29.895Z,61.60
2018-07-07T21:56:04.416Z,61.80
2018-07-07T21:58:38.598Z,62.20
2018-07-07T22:01:22.826Z,62.10
2018-07-07T22:04:02.606Z,62.80
2018-07-07T22:06:43.114Z,62.60
2018-07-07T22:09:17.303Z,63.00
2018-07-07T22:11:51.917Z,63.30
2018-07-07T22:14:26.137Z,63.20
2018-07-07T22:17:00.432Z,63.80
2018-07-07T22:19:34.646Z,63.80
2018-07-07T22:22:09.966Z,64.00
2018-07-07T22:24:44.425Z,63.90
2018-07-07T22:27:18.612Z,64.00
2018-07-07T22:32:27.207Z,65.30
2018-07-07T22:35:05.840Z,64.70
2018-07-07T22:37:40.222Z,65.00
2018-07-07T22:40:14.596Z,65.20
2018-07-07T22:42:49.875Z,65.20
2018-07-07T22:45:24.294Z,65.40
2018-07-07T22:47:58.564Z,65.70
2018-07-07T22:50:32.863Z,65.70
2018-07-07T22:53:07.326Z,66.00
2018-07-07T22:55:41.509Z,65.80
2018-07-07T22:58:16.270Z,66.10
2018-07-07T23:00:50.539Z,66.20
2018-07-07T23:03:24.891Z,65.40
2018-07-07T23:05:59.288Z,66.00
2018-07-07T23:08:33.558Z,66.00
2018-07-07T23:11:07.782Z,66.20
2018-07-07T23:13:42.220Z,66.20
2018-07-07T23:16:16.651Z,66.30
2018-07-07T23:18:51.081Z,66.30
2018-07-07T23:21:25.410Z,66.80
2018-07-07T23:23:59.711Z,67.10
2018-07-07T23:26:34.350Z,67.40
2018-07-07T23:29:08.554Z,67.60
2018-07-07T23:31:42.881Z,67.50
2018-07-07T23:34:17.999Z,67.70
2018-07-07T23:36:52.273Z,67.90
2018-07-07T23:39:26.714Z,68.10
2018-07-07T23:42:00.900Z,67.80
2018-07-07T23:44:35.179Z,67.80
2018-07-07T23:47:09.474Z,68.10
2018-07-07T23:49:43.693Z,68.20
2018-07-07T23:52:18.087Z,68.20
2018-07-07T23:54:52.351Z,68.60
2018-07-07T23:57:26.796Z,69.20
